sensor_id;sensor_type;location;lat;lon;timestamp;temperature;humidity
80254;DHT22;69563;37.974;23.708;2023-05-10T00:01:48;22.60;44.70
80254;DHT22;69563;37.974;23.708;2023-05-10T00:04:14;22.60;44.70
80254;DHT22;69563;37.974;23.708;2023-05-10T00:06:39;22.60;44.70
80254;DHT22;69563;37.974;23.708;2023-05-10T00:09:05;22.60;44.70
80254;DHT22;69563;37.974;23.708;2023-05-10T00:11:31;22.60;44.70
80254;DHT22;69563;37.974;23.708;2023-05-10T00:13:57;22.60;44.80
80254;DHT22;69563;37.974;23.708;2023-05-10T00:16:22;22.60;44.80
80254;DHT22;69563;37.974;23.708;2023-05-10T00:18:48;22.60;44.90
80254;DHT22;69563;37.974;23.708;2023-05-10T00:21:14;22.60;44.80
80254;DHT22;69563;37.974;23.708;2023-05-10T00:23:40;22.60;44.80
80254;DHT22;69563;37.974;23.708;2023-05-10T00:26:05;22.60;44.80
80254;DHT22;69563;37.974;23.708;2023-05-10T00:28:31;22.60;44.90
80254;DHT22;69563;37.974;23.708;2023-05-10T00:30:57;22.60;44.90
80254;DHT22;69563;37.974;23.708;2023-05-10T00:33:22;22.60;44.90
80254;DHT22;69563;37.974;23.708;2023-05-10T00:35:48;22.60;44.90
80254;DHT22;69563;37.974;23.708;2023-05-10T00:38:14;22.60;45.00
80254;DHT22;69563;37.974;23.708;2023-05-10T00:40:39;22.60;45.00
80254;DHT22;69563;37.974;23.708;2023-05-10T00:43:05;22.60;44.90
80254;DHT22;69563;37.974;23.708;2023-05-10T00:45:33;22.60;45.00
80254;DHT22;69563;37.974;23.708;2023-05-10T00:48:02;22.60;44.80
80254;DHT22;69563;37.974;23.708;2023-05-10T00:50:29;22.60;44.90
80254;DHT22;69563;37.974;23.708;2023-05-10T00:52:57;22.60;44.80
80254;DHT22;69563;37.974;23.708;2023-05-10T00:55:23;22.60;44.90
80254;DHT22;69563;37.974;23.708;2023-05-10T00:57:49;22.60;44.90
80254;DHT22;69563;37.974;23.708;2023-05-10T01:00:15;22.60;44.90
80254;DHT22;69563;37.974;23.708;2023-05-10T01:02:47;22.60;44.80
80254;DHT22;69563;37.974;23.708;2023-05-10T01:05:13;22.50;44.80
80254;DHT22;69563;37.974;23.708;2023-05-10T01:07:39;22.60;44.90
80254;DHT22;69563;37.974;23.708;2023-05-10T01:10:06;22.50;44.70
80254;DHT22;69563;37.974;23.708;2023-05-10T01:12:35;22.50;44.80
80254;DHT22;69563;37.974;23.708;2023-05-10T01:15:02;22.50;44.80
80254;DHT22;69563;37.974;23.708;2023-05-10T01:17:29;22.50;44.80
80254;DHT22;69563;37.974;23.708;2023-05-10T01:19:55;22.50;44.80
80254;DHT22;69563;37.974;23.708;2023-05-10T01:31:03;22.50;44.60
80254;DHT22;69563;37.974;23.708;2023-05-10T01:33:59;22.50;44.70
80254;DHT22;69563;37.974;23.708;2023-05-10T01:36:39;22.50;44.60
80254;DHT22;69563;37.974;23.708;2023-05-10T01:39:09;22.50;44.70
80254;DHT22;69563;37.974;23.708;2023-05-10T01:41:55;22.40;44.50
80254;DHT22;69563;37.974;23.708;2023-05-10T01:47:01;22.40;44.50
80254;DHT22;69563;37.974;23.708;2023-05-10T01:49:34;22.40;44.60
80254;DHT22;69563;37.974;23.708;2023-05-10T01:52:08;22.40;44.50
80254;DHT22;69563;37.974;23.708;2023-05-10T01:54:35;22.40;44.50
80254;DHT22;69563;37.974;23.708;2023-05-10T01:57:06;22.40;44.50
80254;DHT22;69563;37.974;23.708;2023-05-10T01:59:35;22.40;44.50
80254;DHT22;69563;37.974;23.708;2023-05-10T02:02:03;22.40;44.50
80254;DHT22;69563;37.974;23.708;2023-05-10T02:04:30;22.40;44.40
80254;DHT22;69563;37.974;23.708;2023-05-10T02:06:57;22.40;44.50
80254;DHT22;69563;37.974;23.708;2023-05-10T02:09:24;22.40;44.40
80254;DHT22;69563;37.974;23.708;2023-05-10T02:11:51;22.40;44.50
80254;DHT22;69563;37.974;23.708;2023-05-10T02:14:18;22.40;44.40
80254;DHT22;69563;37.974;23.708;2023-05-10T02:16:46;22.40;44.40
80254;DHT22;69563;37.974;23.708;2023-05-10T02:19:13;22.40;44.40
80254;DHT22;69563;37.974;23.708;2023-05-10T02:21:40;22.30;44.40
80254;DHT22;69563;37.974;23.708;2023-05-10T02:24:07;22.30;44.40
80254;DHT22;69563;37.974;23.708;2023-05-10T02:26:35;22.30;44.40
80254;DHT22;69563;37.974;23.708;2023-05-10T02:29:02;22.30;44.40
80254;DHT22;69563;37.974;23.708;2023-05-10T02:31:30;22.30;44.50
80254;DHT22;69563;37.974;23.708;2023-05-10T02:33:58;22.30;44.50
80254;DHT22;69563;37.974;23.708;2023-05-10T02:36:25;22.30;44.50
80254;DHT22;69563;37.974;23.708;2023-05-10T02:38:53;22.30;44.50
80254;DHT22;69563;37.974;23.708;2023-05-10T02:41:23;22.30;44.50
80254;DHT22;69563;37.974;23.708;2023-05-10T02:43:50;22.30;44.40
80254;DHT22;69563;37.974;23.708;2023-05-10T02:46:17;22.30;44.40
80254;DHT22;69563;37.974;23.708;2023-05-10T02:48:44;22.30;44.40
80254;DHT22;69563;37.974;23.708;2023-05-10T02:51:12;22.30;44.40
80254;DHT22;69563;37.974;23.708;2023-05-10T02:53:41;22.30;44.40
80254;DHT22;69563;37.974;23.708;2023-05-10T02:56:14;22.30;44.40
80254;DHT22;69563;37.974;23.708;2023-05-10T02:58:41;22.30;44.40
80254;DHT22;69563;37.974;23.708;2023-05-10T03:01:06;22.30;44.40
80254;DHT22;69563;37.974;23.708;2023-05-10T03:03:33;22.30;44.40
80254;DHT22;69563;37.974;23.708;2023-05-10T03:05:59;22.30;44.40
80254;DHT22;69563;37.974;23.708;2023-05-10T03:08:25;22.30;44.40
80254;DHT22;69563;37.974;23.708;2023-05-10T03:13:49;22.30;44.40
80254;DHT22;69563;37.974;23.708;2023-05-10T03:16:27;22.20;44.40
80254;DHT22;69563;37.974;23.708;2023-05-10T03:19:24;22.30;44.40
80254;DHT22;69563;37.974;23.708;2023-05-10T03:21:53;22.20;44.40
80254;DHT22;69563;37.974;23.708;2023-05-10T03:24:26;22.20;44.40
80254;DHT22;69563;37.974;23.708;2023-05-10T03:26:56;22.20;44.40
80254;DHT22;69563;37.974;23.708;2023-05-10T03:29:22;22.20;44.40
80254;DHT22;69563;37.974;23.708;2023-05-10T03:31:51;22.20;44.30
80254;DHT22;69563;37.974;23.708;2023-05-10T03:34:16;22.20;44.30
80254;DHT22;69563;37.974;23.708;2023-05-10T03:36:48;22.20;44.30
80254;DHT22;69563;37.974;23.708;2023-05-10T03:39:14;22.20;44.30
80254;DHT22;69563;37.974;23.708;2023-05-10T03:41:39;22.20;44.20
80254;DHT22;69563;37.974;23.708;2023-05-10T03:44:05;22.30;44.20
80254;DHT22;69563;37.974;23.708;2023-05-10T03:46:31;22.20;44.20
80254;DHT22;69563;37.974;23.708;2023-05-10T03:48:56;22.20;44.10
80254;DHT22;69563;37.974;23.708;2023-05-10T03:51:22;22.20;44.10
80254;DHT22;69563;37.974;23.708;2023-05-10T03:53:48;22.30;44.10
80254;DHT22;69563;37.974;23.708;2023-05-10T03:56:13;22.30;44.00
80254;DHT22;69563;37.974;23.708;2023-05-10T03:58:39;22.20;44.00
80254;DHT22;69563;37.974;23.708;2023-05-10T04:01:05;22.20;44.00
80254;DHT22;69563;37.974;23.708;2023-05-10T04:03:30;22.20;43.90
80254;DHT22;69563;37.974;23.708;2023-05-10T04:06:00;22.30;43.80
80254;DHT22;69563;37.974;23.708;2023-05-10T04:08:27;22.20;43.90
80254;DHT22;69563;37.974;23.708;2023-05-10T04:10:52;22.20;43.90
80254;DHT22;69563;37.974;23.708;2023-05-10T04:13:18;22.30;44.00
80254;DHT22;69563;37.974;23.708;2023-05-10T04:15:44;22.20;43.90
80254;DHT22;69563;37.974;23.708;2023-05-10T04:18:10;22.20;43.90
80254;DHT22;69563;37.974;23.708;2023-05-10T04:20:35;22.30;44.40
80254;DHT22;69563;37.974;23.708;2023-05-10T04:23:01;22.30;44.70
80254;DHT22;69563;37.974;23.708;2023-05-10T04:25:27;22.30;44.60
80254;DHT22;69563;37.974;23.708;2023-05-10T04:27:52;22.30;44.50
80254;DHT22;69563;37.974;23.708;2023-05-10T04:30:18;22.30;44.40
80254;DHT22;69563;37.974;23.708;2023-05-10T04:32:44;22.30;44.40
80254;DHT22;69563;37.974;23.708;2023-05-10T04:35:09;22.30;44.30
80254;DHT22;69563;37.974;23.708;2023-05-10T04:37:36;22.30;44.20
80254;DHT22;69563;37.974;23.708;2023-05-10T04:40:02;22.30;44.30
80254;DHT22;69563;37.974;23.708;2023-05-10T04:42:28;22.30;44.30
80254;DHT22;69563;37.974;23.708;2023-05-10T04:44:54;22.30;44.20
80254;DHT22;69563;37.974;23.708;2023-05-10T04:47:20;22.30;44.20
80254;DHT22;69563;37.974;23.708;2023-05-10T04:49:45;22.30;44.10
80254;DHT22;69563;37.974;23.708;2023-05-10T04:52:11;22.30;44.10
80254;DHT22;69563;37.974;23.708;2023-05-10T04:54:37;22.30;44.00
80254;DHT22;69563;37.974;23.708;2023-05-10T04:57:03;22.30;44.00
80254;DHT22;69563;37.974;23.708;2023-05-10T04:59:28;22.30;45.00
80254;DHT22;69563;37.974;23.708;2023-05-10T05:01:54;22.30;45.00
80254;DHT22;69563;37.974;23.708;2023-05-10T05:04:20;22.30;43.90
80254;DHT22;69563;37.974;23.708;2023-05-10T05:06:48;22.30;43.80
80254;DHT22;69563;37.974;23.708;2023-05-10T05:09:13;22.40;43.90
80254;DHT22;69563;37.974;23.708;2023-05-10T05:11:39;22.40;43.80
80254;DHT22;69563;37.974;23.708;2023-05-10T05:14:05;22.40;43.80
80254;DHT22;69563;37.974;23.708;2023-05-10T05:16:31;22.40;43.70
80254;DHT22;69563;37.974;23.708;2023-05-10T05:18:57;22.50;43.70
80254;DHT22;69563;37.974;23.708;2023-05-10T05:21:23;22.50;43.60
80254;DHT22;69563;37.974;23.708;2023-05-10T05:23:50;22.60;43.60
80254;DHT22;69563;37.974;23.708;2023-05-10T05:26:16;22.60;43.50
80254;DHT22;69563;37.974;23.708;2023-05-10T05:28:41;22.60;43.40
80254;DHT22;69563;37.974;23.708;2023-05-10T05:31:07;22.70;43.40
80254;DHT22;69563;37.974;23.708;2023-05-10T05:33:34;22.70;43.30
80254;DHT22;69563;37.974;23.708;2023-05-10T05:36:04;22.70;43.10
80254;DHT22;69563;37.974;23.708;2023-05-10T05:38:31;22.80;43.00
80254;DHT22;69563;37.974;23.708;2023-05-10T05:40:56;22.80;43.10
80254;DHT22;69563;37.974;23.708;2023-05-10T05:43:22;22.80;43.00
80254;DHT22;69563;37.974;23.708;2023-05-10T05:45:48;22.80;42.80
80254;DHT22;69563;37.974;23.708;2023-05-10T05:48:14;22.90;42.80
80254;DHT22;69563;37.974;23.708;2023-05-10T05:50:39;22.90;42.70
80254;DHT22;69563;37.974;23.708;2023-05-10T05:53:05;23.00;42.60
80254;DHT22;69563;37.974;23.708;2023-05-10T05:55:31;23.00;42.60
80254;DHT22;69563;37.974;23.708;2023-05-10T05:57:57;23.00;42.50
80254;DHT22;69563;37.974;23.708;2023-05-10T06:00:23;23.10;42.30
80254;DHT22;69563;37.974;23.708;2023-05-10T06:02:49;23.10;42.30
80254;DHT22;69563;37.974;23.708;2023-05-10T06:05:15;23.10;42.20
80254;DHT22;69563;37.974;23.708;2023-05-10T06:07:41;23.20;42.10
80254;DHT22;69563;37.974;23.708;2023-05-10T06:10:08;23.20;42.10
80254;DHT22;69563;37.974;23.708;2023-05-10T06:12:34;23.20;42.10
80254;DHT22;69563;37.974;23.708;2023-05-10T06:15:00;23.20;41.90
80254;DHT22;69563;37.974;23.708;2023-05-10T06:17:26;23.30;41.80
80254;DHT22;69563;37.974;23.708;2023-05-10T06:19:52;23.40;41.80
80254;DHT22;69563;37.974;23.708;2023-05-10T06:22:17;23.40;41.60
80254;DHT22;69563;37.974;23.708;2023-05-10T06:24:43;23.40;41.50
80254;DHT22;69563;37.974;23.708;2023-05-10T06:27:08;23.40;41.40
80254;DHT22;69563;37.974;23.708;2023-05-10T06:29:34;23.50;41.40
80254;DHT22;69563;37.974;23.708;2023-05-10T06:32:00;23.50;41.30
80254;DHT22;69563;37.974;23.708;2023-05-10T06:34:25;23.50;41.30
80254;DHT22;69563;37.974;23.708;2023-05-10T06:36:51;23.60;41.20
80254;DHT22;69563;37.974;23.708;2023-05-10T06:39:17;23.60;41.10
80254;DHT22;69563;37.974;23.708;2023-05-10T06:41:43;23.60;41.10
80254;DHT22;69563;37.974;23.708;2023-05-10T06:44:08;23.60;41.00
80254;DHT22;69563;37.974;23.708;2023-05-10T06:46:34;23.60;40.90
80254;DHT22;69563;37.974;23.708;2023-05-10T06:49:00;23.70;40.80
80254;DHT22;69563;37.974;23.708;2023-05-10T06:51:26;23.70;40.80
80254;DHT22;69563;37.974;23.708;2023-05-10T06:53:52;23.80;40.60
80254;DHT22;69563;37.974;23.708;2023-05-10T06:56:18;23.80;40.60
80254;DHT22;69563;37.974;23.708;2023-05-10T06:58:47;23.80;40.50
80254;DHT22;69563;37.974;23.708;2023-05-10T07:01:13;23.90;40.40
80254;DHT22;69563;37.974;23.708;2023-05-10T07:03:38;23.90;40.40
80254;DHT22;69563;37.974;23.708;2023-05-10T07:06:04;23.90;40.20
80254;DHT22;69563;37.974;23.708;2023-05-10T07:08:32;24.00;40.20
80254;DHT22;69563;37.974;23.708;2023-05-10T07:11:02;24.00;40.10
80254;DHT22;69563;37.974;23.708;2023-05-10T07:13:29;24.10;40.00
80254;DHT22;69563;37.974;23.708;2023-05-10T07:15:55;24.10;40.00
80254;DHT22;69563;37.974;23.708;2023-05-10T07:18:21;24.10;39.90
80254;DHT22;69563;37.974;23.708;2023-05-10T07:20:47;24.10;39.90
80254;DHT22;69563;37.974;23.708;2023-05-10T07:23:13;24.10;39.80
80254;DHT22;69563;37.974;23.708;2023-05-10T07:25:38;24.20;39.80
80254;DHT22;69563;37.974;23.708;2023-05-10T07:28:04;24.20;39.70
80254;DHT22;69563;37.974;23.708;2023-05-10T07:30:30;24.20;39.70
80254;DHT22;69563;37.974;23.708;2023-05-10T07:32:56;24.20;39.60
80254;DHT22;69563;37.974;23.708;2023-05-10T07:35:22;24.20;39.60
80254;DHT22;69563;37.974;23.708;2023-05-10T07:37:48;24.20;39.50
80254;DHT22;69563;37.974;23.708;2023-05-10T07:40:13;24.30;39.50
80254;DHT22;69563;37.974;23.708;2023-05-10T07:42:39;24.30;39.50
80254;DHT22;69563;37.974;23.708;2023-05-10T07:45:06;24.30;39.40
80254;DHT22;69563;37.974;23.708;2023-05-10T07:47:31;24.30;39.40
80254;DHT22;69563;37.974;23.708;2023-05-10T07:49:57;24.30;39.40
80254;DHT22;69563;37.974;23.708;2023-05-10T07:52:23;24.30;39.30
80254;DHT22;69563;37.974;23.708;2023-05-10T07:54:48;24.30;39.30
80254;DHT22;69563;37.974;23.708;2023-05-10T07:57:15;24.30;39.30
80254;DHT22;69563;37.974;23.708;2023-05-10T07:59:43;24.40;39.30
80254;DHT22;69563;37.974;23.708;2023-05-10T08:02:09;24.40;39.20
80254;DHT22;69563;37.974;23.708;2023-05-10T08:04:35;24.40;39.20
80254;DHT22;69563;37.974;23.708;2023-05-10T08:07:00;24.40;39.20
80254;DHT22;69563;37.974;23.708;2023-05-10T08:09:26;24.50;39.20
80254;DHT22;69563;37.974;23.708;2023-05-10T08:11:52;24.40;39.10
80254;DHT22;69563;37.974;23.708;2023-05-10T08:14:17;24.50;39.20
80254;DHT22;69563;37.974;23.708;2023-05-10T08:16:43;24.50;39.10
80254;DHT22;69563;37.974;23.708;2023-05-10T08:19:09;24.50;39.10
80254;DHT22;69563;37.974;23.708;2023-05-10T08:21:34;24.50;39.00
80254;DHT22;69563;37.974;23.708;2023-05-10T08:24:01;24.50;39.00
80254;DHT22;69563;37.974;23.708;2023-05-10T08:26:27;24.50;38.90
80254;DHT22;69563;37.974;23.708;2023-05-10T08:28:53;24.50;38.80
80254;DHT22;69563;37.974;23.708;2023-05-10T08:31:18;24.50;38.80
80254;DHT22;69563;37.974;23.708;2023-05-10T08:33:44;24.50;38.80
80254;DHT22;69563;37.974;23.708;2023-05-10T08:36:10;24.50;38.80
80254;DHT22;69563;37.974;23.708;2023-05-10T08:38:36;24.50;38.70
80254;DHT22;69563;37.974;23.708;2023-05-10T08:41:03;24.50;38.80
80254;DHT22;69563;37.974;23.708;2023-05-10T08:43:29;24.50;38.60
80254;DHT22;69563;37.974;23.708;2023-05-10T08:45:55;24.50;38.60
80254;DHT22;69563;37.974;23.708;2023-05-10T08:48:23;24.50;38.60
80254;DHT22;69563;37.974;23.708;2023-05-10T08:50:54;24.60;38.40
80254;DHT22;69563;37.974;23.708;2023-05-10T08:53:24;24.60;38.40
80254;DHT22;69563;37.974;23.708;2023-05-10T08:55:51;24.60;38.40
80254;DHT22;69563;37.974;23.708;2023-05-10T08:58:17;24.60;38.30
80254;DHT22;69563;37.974;23.708;2023-05-10T09:00:45;24.60;38.30
80254;DHT22;69563;37.974;23.708;2023-05-10T09:03:11;24.70;38.20
80254;DHT22;69563;37.974;23.708;2023-05-10T09:05:37;24.60;38.20
80254;DHT22;69563;37.974;23.708;2023-05-10T09:08:03;24.70;38.20
80254;DHT22;69563;37.974;23.708;2023-05-10T09:10:29;24.70;38.20
80254;DHT22;69563;37.974;23.708;2023-05-10T09:12:56;24.70;38.20
80254;DHT22;69563;37.974;23.708;2023-05-10T09:15:22;24.70;38.10
80254;DHT22;69563;37.974;23.708;2023-05-10T09:17:49;24.70;38.10
80254;DHT22;69563;37.974;23.708;2023-05-10T09:20:15;24.70;38.10
80254;DHT22;69563;37.974;23.708;2023-05-10T09:22:42;24.70;38.10
80254;DHT22;69563;37.974;23.708;2023-05-10T09:25:15;24.70;38.10
80254;DHT22;69563;37.974;23.708;2023-05-10T09:27:44;24.70;38.00
80254;DHT22;69563;37.974;23.708;2023-05-10T09:30:14;24.70;38.10
80254;DHT22;69563;37.974;23.708;2023-05-10T09:32:45;24.80;38.10
80254;DHT22;69563;37.974;23.708;2023-05-10T09:35:15;24.70;37.90
80254;DHT22;69563;37.974;23.708;2023-05-10T09:37:46;24.70;38.00
80254;DHT22;69563;37.974;23.708;2023-05-10T09:40:20;24.70;37.90
80254;DHT22;69563;37.974;23.708;2023-05-10T09:45:19;24.70;37.80
80254;DHT22;69563;37.974;23.708;2023-05-10T09:47:45;24.70;37.80
80254;DHT22;69563;37.974;23.708;2023-05-10T09:50:11;24.70;37.70
80254;DHT22;69563;37.974;23.708;2023-05-10T09:52:52;24.70;38.70
80254;DHT22;69563;37.974;23.708;2023-05-10T09:55:23;24.80;37.70
80254;DHT22;69563;37.974;23.708;2023-05-10T09:57:59;24.80;37.70
80254;DHT22;69563;37.974;23.708;2023-05-10T10:00:25;24.80;37.70
80254;DHT22;69563;37.974;23.708;2023-05-10T10:02:59;24.80;37.60
80254;DHT22;69563;37.974;23.708;2023-05-10T10:05:32;24.80;37.60
80254;DHT22;69563;37.974;23.708;2023-05-10T10:07:59;24.80;37.60
80254;DHT22;69563;37.974;23.708;2023-05-10T10:10:28;24.80;37.60
80254;DHT22;69563;37.974;23.708;2023-05-10T10:12:55;24.80;37.50
80254;DHT22;69563;37.974;23.708;2023-05-10T10:15:21;24.80;37.50
80254;DHT22;69563;37.974;23.708;2023-05-10T10:17:49;24.80;37.50
80254;DHT22;69563;37.974;23.708;2023-05-10T10:20:16;24.80;37.50
80254;DHT22;69563;37.974;23.708;2023-05-10T10:22:41;24.80;37.40
80254;DHT22;69563;37.974;23.708;2023-05-10T10:25:11;24.80;37.40
80254;DHT22;69563;37.974;23.708;2023-05-10T10:30:37;24.80;37.40
80254;DHT22;69563;37.974;23.708;2023-05-10T10:36:07;24.80;37.50
80254;DHT22;69563;37.974;23.708;2023-05-10T10:38:57;24.80;37.40
80254;DHT22;69563;37.974;23.708;2023-05-10T10:41:32;24.80;37.40
80254;DHT22;69563;37.974;23.708;2023-05-10T10:52:34;24.70;37.50
80254;DHT22;69563;37.974;23.708;2023-05-10T10:57:51;24.60;37.70
80254;DHT22;69563;37.974;23.708;2023-05-10T11:02:53;24.70;37.80
80254;DHT22;69563;37.974;23.708;2023-05-10T11:07:59;24.60;37.90
80254;DHT22;69563;37.974;23.708;2023-05-10T11:10:26;24.60;37.90
80254;DHT22;69563;37.974;23.708;2023-05-10T11:13:03;24.60;37.90
80254;DHT22;69563;37.974;23.708;2023-05-10T11:15:38;24.60;38.00
80254;DHT22;69563;37.974;23.708;2023-05-10T11:18:18;24.60;38.10
80254;DHT22;69563;37.974;23.708;2023-05-10T11:20:44;24.60;38.10
80254;DHT22;69563;37.974;23.708;2023-05-10T11:23:15;24.50;38.20
80254;DHT22;69563;37.974;23.708;2023-05-10T11:25:43;24.60;38.50
80254;DHT22;69563;37.974;23.708;2023-05-10T11:28:10;24.60;38.20
80254;DHT22;69563;37.974;23.708;2023-05-10T11:30:37;24.60;38.30
80254;DHT22;69563;37.974;23.708;2023-05-10T11:33:03;24.60;38.30
80254;DHT22;69563;37.974;23.708;2023-05-10T11:35:29;24.60;38.30
80254;DHT22;69563;37.974;23.708;2023-05-10T11:37:55;24.60;38.30
80254;DHT22;69563;37.974;23.708;2023-05-10T11:40:23;24.60;38.60
80254;DHT22;69563;37.974;23.708;2023-05-10T11:42:50;24.60;38.40
80254;DHT22;69563;37.974;23.708;2023-05-10T11:45:16;24.60;38.40
80254;DHT22;69563;37.974;23.708;2023-05-10T11:47:42;24.60;38.50
80254;DHT22;69563;37.974;23.708;2023-05-10T11:50:10;24.60;38.60
80254;DHT22;69563;37.974;23.708;2023-05-10T11:52:36;24.60;38.60
80254;DHT22;69563;37.974;23.708;2023-05-10T11:55:06;24.60;38.60
80254;DHT22;69563;37.974;23.708;2023-05-10T11:57:31;24.60;38.70
80254;DHT22;69563;37.974;23.708;2023-05-10T11:59:57;24.60;38.80
80254;DHT22;69563;37.974;23.708;2023-05-10T12:02:23;24.60;38.80
80254;DHT22;69563;37.974;23.708;2023-05-10T12:04:50;24.60;39.00
80254;DHT22;69563;37.974;23.708;2023-05-10T12:07:16;24.60;38.90
80254;DHT22;69563;37.974;23.708;2023-05-10T12:09:43;24.60;38.90
80254;DHT22;69563;37.974;23.708;2023-05-10T12:12:11;24.60;39.00
80254;DHT22;69563;37.974;23.708;2023-05-10T12:14:40;24.60;38.90
80254;DHT22;69563;37.974;23.708;2023-05-10T12:17:11;24.60;39.00
80254;DHT22;69563;37.974;23.708;2023-05-10T12:19:37;24.60;39.00
80254;DHT22;69563;37.974;23.708;2023-05-10T12:22:05;24.60;39.00
80254;DHT22;69563;37.974;23.708;2023-05-10T12:24:34;24.60;39.00
80254;DHT22;69563;37.974;23.708;2023-05-10T12:27:04;24.60;39.10
80254;DHT22;69563;37.974;23.708;2023-05-10T12:29:30;24.60;39.10
80254;DHT22;69563;37.974;23.708;2023-05-10T12:31:58;24.60;39.10
80254;DHT22;69563;37.974;23.708;2023-05-10T12:34:41;24.60;39.20
80254;DHT22;69563;37.974;23.708;2023-05-10T12:37:07;24.60;39.10
80254;DHT22;69563;37.974;23.708;2023-05-10T12:39:40;24.60;39.20
80254;DHT22;69563;37.974;23.708;2023-05-10T12:42:06;24.60;39.20
80254;DHT22;69563;37.974;23.708;2023-05-10T12:44:32;24.60;39.20
80254;DHT22;69563;37.974;23.708;2023-05-10T12:46:58;24.60;39.30
80254;DHT22;69563;37.974;23.708;2023-05-10T12:49:24;24.60;39.30
80254;DHT22;69563;37.974;23.708;2023-05-10T12:51:50;24.60;39.30
80254;DHT22;69563;37.974;23.708;2023-05-10T12:54:15;24.60;39.30
80254;DHT22;69563;37.974;23.708;2023-05-10T12:56:42;24.60;39.30
80254;DHT22;69563;37.974;23.708;2023-05-10T12:59:08;24.60;39.30
80254;DHT22;69563;37.974;23.708;2023-05-10T13:01:34;24.50;39.30
80254;DHT22;69563;37.974;23.708;2023-05-10T13:03:59;24.60;39.40
80254;DHT22;69563;37.974;23.708;2023-05-10T13:06:25;24.60;39.40
80254;DHT22;69563;37.974;23.708;2023-05-10T13:08:51;24.60;39.40
80254;DHT22;69563;37.974;23.708;2023-05-10T13:11:17;24.50;39.40
80254;DHT22;69563;37.974;23.708;2023-05-10T13:13:45;24.50;39.40
80254;DHT22;69563;37.974;23.708;2023-05-10T13:16:11;24.50;39.50
80254;DHT22;69563;37.974;23.708;2023-05-10T13:18:36;24.50;39.50
80254;DHT22;69563;37.974;23.708;2023-05-10T13:21:02;24.50;39.60
80254;DHT22;69563;37.974;23.708;2023-05-10T13:23:30;24.50;39.60
80254;DHT22;69563;37.974;23.708;2023-05-10T13:25:56;24.50;39.60
80254;DHT22;69563;37.974;23.708;2023-05-10T13:28:22;24.50;39.60
80254;DHT22;69563;37.974;23.708;2023-05-10T13:30:48;24.50;39.70
80254;DHT22;69563;37.974;23.708;2023-05-10T13:33:14;24.50;39.70
80254;DHT22;69563;37.974;23.708;2023-05-10T13:35:39;24.50;39.70
80254;DHT22;69563;37.974;23.708;2023-05-10T13:38:05;24.50;39.80
80254;DHT22;69563;37.974;23.708;2023-05-10T13:40:33;24.50;39.80
80254;DHT22;69563;37.974;23.708;2023-05-10T13:42:59;24.50;39.90
80254;DHT22;69563;37.974;23.708;2023-05-10T13:45:24;24.50;40.00
80254;DHT22;69563;37.974;23.708;2023-05-10T13:47:50;24.40;39.90
80254;DHT22;69563;37.974;23.708;2023-05-10T13:50:16;24.40;39.80
80254;DHT22;69563;37.974;23.708;2023-05-10T13:52:42;24.40;40.00
80254;DHT22;69563;37.974;23.708;2023-05-10T13:55:08;24.40;40.00
80254;DHT22;69563;37.974;23.708;2023-05-10T13:57:33;24.40;40.00
80254;DHT22;69563;37.974;23.708;2023-05-10T14:00:01;24.40;40.10
80254;DHT22;69563;37.974;23.708;2023-05-10T14:02:27;24.40;40.10
80254;DHT22;69563;37.974;23.708;2023-05-10T14:04:52;24.30;40.20
80254;DHT22;69563;37.974;23.708;2023-05-10T14:07:18;24.30;40.10
80254;DHT22;69563;37.974;23.708;2023-05-10T14:09:44;24.30;40.20
80254;DHT22;69563;37.974;23.708;2023-05-10T14:12:10;24.30;40.20
80254;DHT22;69563;37.974;23.708;2023-05-10T14:14:35;24.30;40.30
80254;DHT22;69563;37.974;23.708;2023-05-10T14:17:01;24.30;40.40
80254;DHT22;69563;37.974;23.708;2023-05-10T14:19:27;24.30;40.40
80254;DHT22;69563;37.974;23.708;2023-05-10T14:21:53;24.30;40.50
80254;DHT22;69563;37.974;23.708;2023-05-10T14:24:18;24.20;40.60
80254;DHT22;69563;37.974;23.708;2023-05-10T14:26:44;24.30;40.50
80254;DHT22;69563;37.974;23.708;2023-05-10T14:29:10;24.20;40.50
80254;DHT22;69563;37.974;23.708;2023-05-10T14:31:35;24.20;40.60
80254;DHT22;69563;37.974;23.708;2023-05-10T14:34:01;24.20;40.50
80254;DHT22;69563;37.974;23.708;2023-05-10T14:36:28;24.20;40.70
80254;DHT22;69563;37.974;23.708;2023-05-10T14:38:54;24.20;40.60
80254;DHT22;69563;37.974;23.708;2023-05-10T14:41:20;24.20;40.70
80254;DHT22;69563;37.974;23.708;2023-05-10T14:43:45;24.10;40.60
80254;DHT22;69563;37.974;23.708;2023-05-10T14:46:11;24.20;40.80
80254;DHT22;69563;37.974;23.708;2023-05-10T14:48:37;24.10;40.70
80254;DHT22;69563;37.974;23.708;2023-05-10T14:51:03;24.10;41.80
80254;DHT22;69563;37.974;23.708;2023-05-10T14:53:29;24.10;40.80
80254;DHT22;69563;37.974;23.708;2023-05-10T14:55:54;24.10;40.80
80254;DHT22;69563;37.974;23.708;2023-05-10T14:58:20;24.10;40.90
80254;DHT22;69563;37.974;23.708;2023-05-10T15:00:46;24.10;40.90
80254;DHT22;69563;37.974;23.708;2023-05-10T15:03:11;24.10;41.00
80254;DHT22;69563;37.974;23.708;2023-05-10T15:05:37;24.10;41.00
80254;DHT22;69563;37.974;23.708;2023-05-10T15:08:03;24.10;41.20
80254;DHT22;69563;37.974;23.708;2023-05-10T15:10:30;24.00;41.00
80254;DHT22;69563;37.974;23.708;2023-05-10T15:12:55;24.10;41.10
80254;DHT22;69563;37.974;23.708;2023-05-10T15:15:21;24.00;41.10
80254;DHT22;69563;37.974;23.708;2023-05-10T15:17:47;24.00;41.10
80254;DHT22;69563;37.974;23.708;2023-05-10T15:20:13;24.00;41.20
80254;DHT22;69563;37.974;23.708;2023-05-10T15:22:40;23.90;41.10
80254;DHT22;69563;37.974;23.708;2023-05-10T15:25:06;24.00;41.20
80254;DHT22;69563;37.974;23.708;2023-05-10T15:27:32;23.90;41.20
80254;DHT22;69563;37.974;23.708;2023-05-10T15:29:58;23.90;41.20
80254;DHT22;69563;37.974;23.708;2023-05-10T15:32:25;23.90;41.30
80254;DHT22;69563;37.974;23.708;2023-05-10T15:34:50;23.90;41.30
80254;DHT22;69563;37.974;23.708;2023-05-10T15:37:16;23.90;41.30
80254;DHT22;69563;37.974;23.708;2023-05-10T15:39:42;23.90;41.40
80254;DHT22;69563;37.974;23.708;2023-05-10T15:42:07;23.80;41.30
80254;DHT22;69563;37.974;23.708;2023-05-10T15:44:33;23.80;41.30
80254;DHT22;69563;37.974;23.708;2023-05-10T15:47:01;23.80;41.40
80254;DHT22;69563;37.974;23.708;2023-05-10T15:49:28;23.80;41.50
80254;DHT22;69563;37.974;23.708;2023-05-10T15:51:53;23.80;41.40
80254;DHT22;69563;37.974;23.708;2023-05-10T15:54:19;23.80;41.50